sensor_id;sensor_type;location;lat;lon;timestamp;P1;durP1;ratioP1;P2;durP2;ratioP2
4391;SDS011;2210;51.938;8.488;2023-09-12T00:03:41;2.67;;;1.80;;
4391;SDS011;2210;51.938;8.488;2023-09-12T00:07:42;2.40;;;1.30;;
4391;SDS011;2210;51.938;8.488;2023-09-12T00:11:48;1.60;;;1.43;;
4391;SDS011;2210;51.938;8.488;2023-09-12T00:15:51;2.37;;;1.40;;
4391;SDS011;2210;51.938;8.488;2023-09-12T00:19:55;4.33;;;1.97;;
4391;SDS011;2210;51.938;8.488;2023-09-12T00:23:55;3.37;;;1.70;;
4391;SDS011;2210;51.938;8.488;2023-09-12T00:27:58;1.47;;;1.37;;
4391;SDS011;2210;51.938;8.488;2023-09-12T00:32:02;2.23;;;1.90;;
4391;SDS011;2210;51.938;8.488;2023-09-12T00:36:02;1.77;;;1.67;;
4391;SDS011;2210;51.938;8.488;2023-09-12T00:40:18;2.10;;;1.63;;
4391;SDS011;2210;51.938;8.488;2023-09-12T00:44:21;2.70;;;1.67;;
4391;SDS011;2210;51.938;8.488;2023-09-12T00:48:21;1.87;;;1.77;;
4391;SDS011;2210;51.938;8.488;2023-09-12T00:52:24;1.60;;;1.50;;
4391;SDS011;2210;51.938;8.488;2023-09-12T00:56:26;2.60;;;1.70;;
4391;SDS011;2210;51.938;8.488;2023-09-12T01:00:29;2.83;;;2.20;;
4391;SDS011;2210;51.938;8.488;2023-09-12T01:04:33;1.63;;;1.53;;
4391;SDS011;2210;51.938;8.488;2023-09-12T01:08:35;2.40;;;2.20;;
4391;SDS011;2210;51.938;8.488;2023-09-12T01:12:41;3.03;;;1.80;;
4391;SDS011;2210;51.938;8.488;2023-09-12T01:16:41;2.53;;;2.03;;
4391;SDS011;2210;51.938;8.488;2023-09-12T01:20:52;3.97;;;2.60;;
4391;SDS011;2210;51.938;8.488;2023-09-12T01:25:14;3.47;;;3.17;;
4391;SDS011;2210;51.938;8.488;2023-09-12T01:29:24;3.10;;;2.77;;
4391;SDS011;2210;51.938;8.488;2023-09-12T01:33:31;4.00;;;2.80;;
4391;SDS011;2210;51.938;8.488;2023-09-12T01:41:54;4.03;;;3.33;;
4391;SDS011;2210;51.938;8.488;2023-09-12T01:45:55;4.53;;;3.23;;
4391;SDS011;2210;51.938;8.488;2023-09-12T01:49:58;4.10;;;2.40;;
4391;SDS011;2210;51.938;8.488;2023-09-12T01:54:03;3.60;;;3.17;;
4391;SDS011;2210;51.938;8.488;2023-09-12T01:58:04;3.80;;;3.40;;
4391;SDS011;2210;51.938;8.488;2023-09-12T02:02:04;7.43;;;3.60;;
4391;SDS011;2210;51.938;8.488;2023-09-12T02:06:11;8.53;;;4.27;;
4391;SDS011;2210;51.938;8.488;2023-09-12T02:10:11;6.37;;;3.93;;
4391;SDS011;2210;51.938;8.488;2023-09-12T02:14:18;4.87;;;3.70;;
4391;SDS011;2210;51.938;8.488;2023-09-12T02:18:18;3.73;;;3.20;;
4391;SDS011;2210;51.938;8.488;2023-09-12T02:22:19;4.60;;;3.90;;
4391;SDS011;2210;51.938;8.488;2023-09-12T02:26:19;6.13;;;4.37;;
4391;SDS011;2210;51.938;8.488;2023-09-12T02:30:19;11.10;;;5.63;;
4391;SDS011;2210;51.938;8.488;2023-09-12T02:34:20;6.80;;;5.70;;
4391;SDS011;2210;51.938;8.488;2023-09-12T02:38:20;10.80;;;5.90;;
4391;SDS011;2210;51.938;8.488;2023-09-12T02:42:20;10.10;;;6.43;;
4391;SDS011;2210;51.938;8.488;2023-09-12T02:46:20;8.40;;;6.20;;
4391;SDS011;2210;51.938;8.488;2023-09-12T02:50:21;8.80;;;5.53;;
4391;SDS011;2210;51.938;8.488;2023-09-12T02:54:24;10.87;;;6.20;;
4391;SDS011;2210;51.938;8.488;2023-09-12T02:58:27;7.00;;;5.43;;
4391;SDS011;2210;51.938;8.488;2023-09-12T03:02:28;9.60;;;5.57;;
4391;SDS011;2210;51.938;8.488;2023-09-12T03:06:29;15.40;;;6.50;;
4391;SDS011;2210;51.938;8.488;2023-09-12T03:10:30;6.53;;;5.40;;
4391;SDS011;2210;51.938;8.488;2023-09-12T03:14:33;6.75;;;5.15;;
4391;SDS011;2210;51.938;8.488;2023-09-12T03:18:36;5.23;;;4.73;;
4391;SDS011;2210;51.938;8.488;2023-09-12T03:22:40;8.40;;;4.93;;
4391;SDS011;2210;51.938;8.488;2023-09-12T03:26:40;10.10;;;4.70;;
4391;SDS011;2210;51.938;8.488;2023-09-12T03:30:41;7.10;;;4.70;;
4391;SDS011;2210;51.938;8.488;2023-09-12T03:34:41;5.40;;;4.53;;
4391;SDS011;2210;51.938;8.488;2023-09-12T03:38:41;5.47;;;4.53;;
4391;SDS011;2210;51.938;8.488;2023-09-12T03:42:45;6.83;;;4.30;;
4391;SDS011;2210;51.938;8.488;2023-09-12T03:46:45;6.80;;;5.20;;
4391;SDS011;2210;51.938;8.488;2023-09-12T03:50:48;7.90;;;5.50;;
4391;SDS011;2210;51.938;8.488;2023-09-12T03:54:55;5.47;;;4.40;;
4391;SDS011;2210;51.938;8.488;2023-09-12T03:58:55;4.47;;;3.90;;
4391;SDS011;2210;51.938;8.488;2023-09-12T04:02:57;4.37;;;3.50;;
4391;SDS011;2210;51.938;8.488;2023-09-12T04:07:04;7.37;;;2.77;;
4391;SDS011;2210;51.938;8.488;2023-09-12T04:11:04;3.87;;;2.50;;
4391;SDS011;2210;51.938;8.488;2023-09-12T04:15:05;3.80;;;2.50;;
4391;SDS011;2210;51.938;8.488;2023-09-12T04:19:15;4.80;;;2.77;;
4391;SDS011;2210;51.938;8.488;2023-09-12T04:23:19;3.00;;;2.30;;
4391;SDS011;2210;51.938;8.488;2023-09-12T04:27:22;3.87;;;3.10;;
4391;SDS011;2210;51.938;8.488;2023-09-12T04:31:22;3.43;;;2.30;;
4391;SDS011;2210;51.938;8.488;2023-09-12T04:35:22;3.80;;;2.70;;
4391;SDS011;2210;51.938;8.488;2023-09-12T04:39:25;3.27;;;2.87;;
4391;SDS011;2210;51.938;8.488;2023-09-12T04:43:25;3.13;;;2.83;;
4391;SDS011;2210;51.938;8.488;2023-09-12T04:47:28;2.70;;;2.13;;
4391;SDS011;2210;51.938;8.488;2023-09-12T04:51:28;3.83;;;2.33;;
4391;SDS011;2210;51.938;8.488;2023-09-12T04:55:35;2.40;;;2.20;;
4391;SDS011;2210;51.938;8.488;2023-09-12T04:59:39;5.50;;;2.40;;
4391;SDS011;2210;51.938;8.488;2023-09-12T05:03:39;6.33;;;2.60;;
4391;SDS011;2210;51.938;8.488;2023-09-12T05:07:45;2.90;;;2.47;;
4391;SDS011;2210;51.938;8.488;2023-09-12T05:11:46;3.37;;;2.70;;
4391;SDS011;2210;51.938;8.488;2023-09-12T05:15:49;3.07;;;2.73;;
4391;SDS011;2210;51.938;8.488;2023-09-12T05:19:49;8.63;;;3.83;;
4391;SDS011;2210;51.938;8.488;2023-09-12T05:23:50;6.23;;;3.27;;
4391;SDS011;2210;51.938;8.488;2023-09-12T05:27:54;5.23;;;3.10;;
4391;SDS011;2210;51.938;8.488;2023-09-12T05:31:54;10.93;;;3.80;;
4391;SDS011;2210;51.938;8.488;2023-09-12T05:36:01;5.60;;;3.43;;
4391;SDS011;2210;51.938;8.488;2023-09-12T05:40:03;8.10;;;3.27;;
4391;SDS011;2210;51.938;8.488;2023-09-12T05:44:04;11.77;;;4.00;;
4391;SDS011;2210;51.938;8.488;2023-09-12T05:48:04;4.03;;;2.80;;
4391;SDS011;2210;51.938;8.488;2023-09-12T05:52:04;6.50;;;3.90;;
4391;SDS011;2210;51.938;8.488;2023-09-12T05:56:17;7.27;;;3.07;;
4391;SDS011;2210;51.938;8.488;2023-09-12T06:00:20;12.20;;;3.67;;
4391;SDS011;2210;51.938;8.488;2023-09-12T06:04:24;7.20;;;4.13;;
4391;SDS011;2210;51.938;8.488;2023-09-12T06:08:24;7.33;;;3.80;;
4391;SDS011;2210;51.938;8.488;2023-09-12T06:12:31;11.90;;;3.40;;
4391;SDS011;2210;51.938;8.488;2023-09-12T06:16:45;12.40;;;4.20;;
4391;SDS011;2210;51.938;8.488;2023-09-12T06:20:45;5.10;;;3.40;;
4391;SDS011;2210;51.938;8.488;2023-09-12T06:24:46;8.60;;;3.83;;
4391;SDS011;2210;51.938;8.488;2023-09-12T06:29:04;8.87;;;4.23;;
4391;SDS011;2210;51.938;8.488;2023-09-12T06:33:05;7.07;;;3.80;;
4391;SDS011;2210;51.938;8.488;2023-09-12T06:37:14;7.27;;;3.83;;
4391;SDS011;2210;51.938;8.488;2023-09-12T06:41:23;9.27;;;3.63;;
4391;SDS011;2210;51.938;8.488;2023-09-12T06:45:24;6.00;;;3.70;;
4391;SDS011;2210;51.938;8.488;2023-09-12T06:49:25;4.17;;;3.23;;
4391;SDS011;2210;51.938;8.488;2023-09-12T06:53:28;6.03;;;3.55;;
4391;SDS011;2210;51.938;8.488;2023-09-12T06:57:28;6.60;;;4.00;;
4391;SDS011;2210;51.938;8.488;2023-09-12T07:01:35;10.40;;;4.30;;
4391;SDS011;2210;51.938;8.488;2023-09-12T07:05:44;6.67;;;4.23;;
4391;SDS011;2210;51.938;8.488;2023-09-12T07:10:00;6.27;;;3.97;;
4391;SDS011;2210;51.938;8.488;2023-09-12T07:19:00;10.57;;;4.90;;
4391;SDS011;2210;51.938;8.488;2023-09-12T07:23:18;12.93;;;4.90;;
4391;SDS011;2210;51.938;8.488;2023-09-12T07:27:21;8.93;;;3.80;;
4391;SDS011;2210;51.938;8.488;2023-09-12T07:31:25;4.27;;;3.03;;
4391;SDS011;2210;51.938;8.488;2023-09-12T07:35:31;3.40;;;3.07;;
4391;SDS011;2210;51.938;8.488;2023-09-12T07:39:31;6.10;;;4.20;;
4391;SDS011;2210;51.938;8.488;2023-09-12T07:43:41;4.97;;;4.27;;
4391;SDS011;2210;51.938;8.488;2023-09-12T07:47:41;5.93;;;4.80;;
4391;SDS011;2210;51.938;8.488;2023-09-12T07:51:44;4.90;;;4.30;;
4391;SDS011;2210;51.938;8.488;2023-09-12T07:55:45;8.10;;;4.73;;
4391;SDS011;2210;51.938;8.488;2023-09-12T07:59:49;6.53;;;3.87;;
4391;SDS011;2210;51.938;8.488;2023-09-12T08:03:52;6.67;;;4.83;;
4391;SDS011;2210;51.938;8.488;2023-09-12T08:07:52;6.07;;;4.70;;
4391;SDS011;2210;51.938;8.488;2023-09-12T08:11:56;8.50;;;5.17;;
4391;SDS011;2210;51.938;8.488;2023-09-12T08:16:02;8.90;;;5.27;;
4391;SDS011;2210;51.938;8.488;2023-09-12T08:20:14;9.97;;;5.73;;
4391;SDS011;2210;51.938;8.488;2023-09-12T08:24:14;5.00;;;3.80;;
4391;SDS011;2210;51.938;8.488;2023-09-12T08:28:21;9.40;;;4.50;;
4391;SDS011;2210;51.938;8.488;2023-09-12T08:32:21;4.60;;;4.07;;
4391;SDS011;2210;51.938;8.488;2023-09-12T08:36:22;10.33;;;4.47;;
4391;SDS011;2210;51.938;8.488;2023-09-12T08:40:22;6.50;;;4.10;;
4391;SDS011;2210;51.938;8.488;2023-09-12T08:44:26;7.23;;;3.60;;
4391;SDS011;2210;51.938;8.488;2023-09-12T08:48:26;7.80;;;4.80;;
4391;SDS011;2210;51.938;8.488;2023-09-12T08:52:35;5.60;;;4.50;;
4391;SDS011;2210;51.938;8.488;2023-09-12T08:56:51;8.23;;;4.23;;
4391;SDS011;2210;51.938;8.488;2023-09-12T09:00:51;6.50;;;3.93;;
4391;SDS011;2210;51.938;8.488;2023-09-12T09:04:55;5.70;;;3.97;;
4391;SDS011;2210;51.938;8.488;2023-09-12T09:09:02;7.77;;;4.30;;
4391;SDS011;2210;51.938;8.488;2023-09-12T09:13:05;7.03;;;4.17;;
4391;SDS011;2210;51.938;8.488;2023-09-12T09:17:07;6.13;;;4.77;;
4391;SDS011;2210;51.938;8.488;2023-09-12T09:21:21;5.77;;;3.90;;
4391;SDS011;2210;51.938;8.488;2023-09-12T09:25:27;4.13;;;3.07;;
4391;SDS011;2210;51.938;8.488;2023-09-12T09:29:28;5.40;;;4.20;;
4391;SDS011;2210;51.938;8.488;2023-09-12T09:33:34;5.43;;;3.70;;
4391;SDS011;2210;51.938;8.488;2023-09-12T09:37:36;10.33;;;3.63;;
4391;SDS011;2210;51.938;8.488;2023-09-12T09:41:46;6.60;;;4.13;;
4391;SDS011;2210;51.938;8.488;2023-09-12T09:45:48;5.30;;;4.57;;
4391;SDS011;2210;51.938;8.488;2023-09-12T09:50:01;6.47;;;4.07;;
4391;SDS011;2210;51.938;8.488;2023-09-12T09:54:07;8.50;;;4.67;;
4391;SDS011;2210;51.938;8.488;2023-09-12T09:58:08;7.43;;;5.10;;
4391;SDS011;2210;51.938;8.488;2023-09-12T10:02:10;9.10;;;4.90;;
4391;SDS011;2210;51.938;8.488;2023-09-12T10:06:22;6.50;;;4.50;;
4391;SDS011;2210;51.938;8.488;2023-09-12T10:10:24;6.30;;;3.90;;
4391;SDS011;2210;51.938;8.488;2023-09-12T10:14:26;6.40;;;4.40;;
4391;SDS011;2210;51.938;8.488;2023-09-12T10:18:37;7.27;;;4.20;;
4391;SDS011;2210;51.938;8.488;2023-09-12T10:23:00;5.23;;;3.90;;
4391;SDS011;2210;51.938;8.488;2023-09-12T10:27:21;7.40;;;4.77;;
4391;SDS011;2210;51.938;8.488;2023-09-12T10:31:27;6.00;;;4.47;;
4391;SDS011;2210;51.938;8.488;2023-09-12T10:35:31;3.47;;;3.10;;
4391;SDS011;2210;51.938;8.488;2023-09-12T10:39:32;5.50;;;3.40;;
4391;SDS011;2210;51.938;8.488;2023-09-12T10:43:37;3.43;;;2.93;;
4391;SDS011;2210;51.938;8.488;2023-09-12T10:47:51;5.00;;;3.27;;
4391;SDS011;2210;51.938;8.488;2023-09-12T10:51:52;6.30;;;3.40;;
4391;SDS011;2210;51.938;8.488;2023-09-12T11:00:12;3.23;;;2.77;;
4391;SDS011;2210;51.938;8.488;2023-09-12T11:08:19;3.23;;;2.90;;
4391;SDS011;2210;51.938;8.488;2023-09-12T11:16:39;3.93;;;2.67;;
4391;SDS011;2210;51.938;8.488;2023-09-12T11:20:59;3.00;;;2.40;;
4391;SDS011;2210;51.938;8.488;2023-09-12T11:29:30;3.50;;;2.77;;
4391;SDS011;2210;51.938;8.488;2023-09-12T11:33:45;2.80;;;2.60;;
4391;SDS011;2210;51.938;8.488;2023-09-12T11:37:50;3.77;;;2.33;;
4391;SDS011;2210;51.938;8.488;2023-09-12T11:41:51;3.73;;;2.07;;
4391;SDS011;2210;51.938;8.488;2023-09-12T11:45:52;2.73;;;2.07;;
4391;SDS011;2210;51.938;8.488;2023-09-12T11:49:54;2.50;;;2.10;;
4391;SDS011;2210;51.938;8.488;2023-09-12T11:53:57;2.40;;;1.60;;
4391;SDS011;2210;51.938;8.488;2023-09-12T13:31:27;2.80;;;2.60;;
4391;SDS011;2210;51.938;8.488;2023-09-12T13:35:27;3.50;;;3.20;;
4391;SDS011;2210;51.938;8.488;2023-09-12T13:39:33;5.13;;;3.60;;
4391;SDS011;2210;51.938;8.488;2023-09-12T13:43:33;3.43;;;3.00;;
4391;SDS011;2210;51.938;8.488;2023-09-12T13:47:34;6.03;;;3.03;;
4391;SDS011;2210;51.938;8.488;2023-09-12T13:51:40;4.73;;;3.30;;
4391;SDS011;2210;51.938;8.488;2023-09-12T13:55:40;3.97;;;3.57;;
4391;SDS011;2210;51.938;8.488;2023-09-12T13:59:40;3.50;;;3.20;;
4391;SDS011;2210;51.938;8.488;2023-09-12T14:03:59;3.13;;;2.83;;
4391;SDS011;2210;51.938;8.488;2023-09-12T14:07:59;4.43;;;3.43;;
4391;SDS011;2210;51.938;8.488;2023-09-12T14:11:59;8.40;;;4.00;;
4391;SDS011;2210;51.938;8.488;2023-09-12T14:16:06;4.00;;;3.60;;
4391;SDS011;2210;51.938;8.488;2023-09-12T14:20:12;3.33;;;3.03;;
4391;SDS011;2210;51.938;8.488;2023-09-12T14:24:15;3.23;;;2.93;;
4391;SDS011;2210;51.938;8.488;2023-09-12T14:28:15;3.27;;;3.00;;
4391;SDS011;2210;51.938;8.488;2023-09-12T14:32:15;3.85;;;3.10;;
4391;SDS011;2210;51.938;8.488;2023-09-12T14:36:16;3.90;;;2.97;;
4391;SDS011;2210;51.938;8.488;2023-09-12T14:40:16;3.33;;;3.03;;
4391;SDS011;2210;51.938;8.488;2023-09-12T14:44:25;2.93;;;2.63;;
4391;SDS011;2210;51.938;8.488;2023-09-12T14:48:29;3.73;;;3.33;;
4391;SDS011;2210;51.938;8.488;2023-09-12T14:52:36;3.17;;;2.87;;
4391;SDS011;2210;51.938;8.488;2023-09-12T14:56:47;3.20;;;2.80;;
4391;SDS011;2210;51.938;8.488;2023-09-12T15:00:56;3.70;;;2.80;;
4391;SDS011;2210;51.938;8.488;2023-09-12T15:05:01;4.97;;;2.83;;
4391;SDS011;2210;51.938;8.488;2023-09-12T15:09:03;2.90;;;2.57;;
4391;SDS011;2210;51.938;8.488;2023-09-12T15:13:07;3.07;;;2.60;;
4391;SDS011;2210;51.938;8.488;2023-09-12T15:17:07;2.33;;;2.13;;
4391;SDS011;2210;51.938;8.488;2023-09-12T15:21:14;3.67;;;2.77;;
4391;SDS011;2210;51.938;8.488;2023-09-12T15:25:20;2.60;;;2.30;;
4391;SDS011;2210;51.938;8.488;2023-09-12T15:29:20;2.60;;;2.40;;
4391;SDS011;2210;51.938;8.488;2023-09-12T15:33:21;2.60;;;2.40;;
4391;SDS011;2210;51.938;8.488;2023-09-12T15:37:22;2.97;;;2.57;;
4391;SDS011;2210;51.938;8.488;2023-09-12T15:41:22;2.23;;;2.03;;
4391;SDS011;2210;51.938;8.488;2023-09-12T15:45:23;3.03;;;2.00;;
4391;SDS011;2210;51.938;8.488;2023-09-12T15:49:27;2.63;;;2.43;;
4391;SDS011;2210;51.938;8.488;2023-09-12T15:53:28;2.27;;;2.07;;
4391;SDS011;2210;51.938;8.488;2023-09-12T15:57:41;3.37;;;2.90;;
4391;SDS011;2210;51.938;8.488;2023-09-12T16:01:45;2.20;;;2.00;;
4391;SDS011;2210;51.938;8.488;2023-09-12T16:05:46;6.10;;;3.00;;
4391;SDS011;2210;51.938;8.488;2023-09-12T16:09:46;2.50;;;2.00;;
4391;SDS011;2210;51.938;8.488;2023-09-12T16:13:50;3.20;;;2.90;;
4391;SDS011;2210;51.938;8.488;2023-09-12T16:17:56;4.13;;;2.57;;
4391;SDS011;2210;51.938;8.488;2023-09-12T16:21:57;2.77;;;2.57;;
4391;SDS011;2210;51.938;8.488;2023-09-12T16:25:58;3.27;;;2.60;;
4391;SDS011;2210;51.938;8.488;2023-09-12T16:29:59;2.77;;;2.40;;
4391;SDS011;2210;51.938;8.488;2023-09-12T16:34:02;3.10;;;2.60;;
4391;SDS011;2210;51.938;8.488;2023-09-12T16:38:12;4.73;;;2.90;;
4391;SDS011;2210;51.938;8.488;2023-09-12T16:42:16;3.27;;;2.83;;
4391;SDS011;2210;51.938;8.488;2023-09-12T16:46:16;2.43;;;2.23;;
4391;SDS011;2210;51.938;8.488;2023-09-12T16:50:19;2.53;;;2.33;;
4391;SDS011;2210;51.938;8.488;2023-09-12T16:54:20;3.17;;;2.80;;
4391;SDS011;2210;51.938;8.488;2023-09-12T16:58:26;2.70;;;2.50;;
4391;SDS011;2210;51.938;8.488;2023-09-12T17:02:29;5.30;;;3.00;;
4391;SDS011;2210;51.938;8.488;2023-09-12T17:06:40;3.00;;;2.70;;
4391;SDS011;2210;51.938;8.488;2023-09-12T17:10:41;3.40;;;2.60;;
4391;SDS011;2210;51.938;8.488;2023-09-12T17:14:45;3.00;;;2.70;;
4391;SDS011;2210;51.938;8.488;2023-09-12T17:18:51;2.90;;;2.40;;
4391;SDS011;2210;51.938;8.488;2023-09-12T17:22:54;2.60;;;2.40;;
4391;SDS011;2210;51.938;8.488;2023-09-12T17:26:54;5.40;;;3.30;;
4391;SDS011;2210;51.938;8.488;2023-09-12T17:30:55;7.37;;;2.77;;
4391;SDS011;2210;51.938;8.488;2023-09-12T17:34:55;5.73;;;3.43;;
4391;SDS011;2210;51.938;8.488;2023-09-12T17:39:05;4.00;;;3.50;;
4391;SDS011;2210;51.938;8.488;2023-09-12T17:43:11;7.10;;;3.77;;
4391;SDS011;2210;51.938;8.488;2023-09-12T17:47:12;3.40;;;3.10;;
4391;SDS011;2210;51.938;8.488;2023-09-12T17:51:30;3.77;;;3.40;;
4391;SDS011;2210;51.938;8.488;2023-09-12T17:55:35;5.40;;;3.93;;
4391;SDS011;2210;51.938;8.488;2023-09-12T17:59:44;3.57;;;3.27;;
4391;SDS011;2210;51.938;8.488;2023-09-12T18:03:48;3.80;;;3.43;;
4391;SDS011;2210;51.938;8.488;2023-09-12T18:07:48;5.47;;;3.23;;
4391;SDS011;2210;51.938;8.488;2023-09-12T18:11:49;3.40;;;3.00;;
4391;SDS011;2210;51.938;8.488;2023-09-12T18:16:09;4.17;;;3.60;;
4391;SDS011;2210;51.938;8.488;2023-09-12T18:20:16;4.87;;;3.27;;
4391;SDS011;2210;51.938;8.488;2023-09-12T18:24:17;4.53;;;3.10;;
4391;SDS011;2210;51.938;8.488;2023-09-12T18:28:34;4.77;;;3.43;;
4391;SDS011;2210;51.938;8.488;2023-09-12T18:32:49;3.30;;;3.00;;
4391;SDS011;2210;51.938;8.488;2023-09-12T18:36:49;3.90;;;3.50;;
4391;SDS011;2210;51.938;8.488;2023-09-12T18:40:56;3.70;;;2.87;;
4391;SDS011;2210;51.938;8.488;2023-09-12T18:45:06;3.63;;;2.97;;
4391;SDS011;2210;51.938;8.488;2023-09-12T18:49:07;2.80;;;2.60;;
4391;SDS011;2210;51.938;8.488;2023-09-12T18:53:07;3.60;;;3.27;;
4391;SDS011;2210;51.938;8.488;2023-09-12T18:57:13;3.37;;;2.90;;
4391;SDS011;2210;51.938;8.488;2023-09-12T19:01:14;4.37;;;3.07;;
4391;SDS011;2210;51.938;8.488;2023-09-12T19:05:15;4.03;;;2.60;;
4391;SDS011;2210;51.938;8.488;2023-09-12T19:09:15;3.27;;;2.97;;
4391;SDS011;2210;51.938;8.488;2023-09-12T19:13:18;4.30;;;3.17;;
4391;SDS011;2210;51.938;8.488;2023-09-12T19:17:18;3.50;;;3.20;;
4391;SDS011;2210;51.938;8.488;2023-09-12T19:21:19;4.10;;;3.37;;
4391;SDS011;2210;51.938;8.488;2023-09-12T19:25:22;4.40;;;3.00;;
4391;SDS011;2210;51.938;8.488;2023-09-12T19:29:28;3.57;;;3.27;;
4391;SDS011;2210;51.938;8.488;2023-09-12T19:33:29;5.00;;;3.60;;
4391;SDS011;2210;51.938;8.488;2023-09-12T19:37:29;3.80;;;3.40;;
4391;SDS011;2210;51.938;8.488;2023-09-12T19:41:30;4.20;;;3.40;;
4391;SDS011;2210;51.938;8.488;2023-09-12T19:45:33;4.23;;;3.67;;
4391;SDS011;2210;51.938;8.488;2023-09-12T19:49:33;4.23;;;3.83;;
4391;SDS011;2210;51.938;8.488;2023-09-12T19:53:37;11.00;;;4.67;;
4391;SDS011;2210;51.938;8.488;2023-09-12T19:57:40;4.60;;;3.83;;
4391;SDS011;2210;51.938;8.488;2023-09-12T20:01:45;3.70;;;3.30;;
4391;SDS011;2210;51.938;8.488;2023-09-12T20:05:46;5.73;;;4.37;;
4391;SDS011;2210;51.938;8.488;2023-09-12T20:09:46;4.57;;;4.17;;
4391;SDS011;2210;51.938;8.488;2023-09-12T20:13:46;5.43;;;3.60;;
4391;SDS011;2210;51.938;8.488;2023-09-12T20:17:47;4.17;;;3.80;;
4391;SDS011;2210;51.938;8.488;2023-09-12T20:21:47;3.67;;;3.27;;
4391;SDS011;2210;51.938;8.488;2023-09-12T20:25:49;5.27;;;3.73;;
4391;SDS011;2210;51.938;8.488;2023-09-12T20:29:50;4.30;;;3.90;;
4391;SDS011;2210;51.938;8.488;2023-09-12T20:33:50;5.60;;;4.53;;
4391;SDS011;2210;51.938;8.488;2023-09-12T20:37:51;7.03;;;4.97;;
4391;SDS011;2210;51.938;8.488;2023-09-12T20:41:52;7.30;;;4.77;;
4391;SDS011;2210;51.938;8.488;2023-09-12T20:45:53;8.97;;;4.53;;
4391;SDS011;2210;51.938;8.488;2023-09-12T20:49:54;5.73;;;4.13;;
4391;SDS011;2210;51.938;8.488;2023-09-12T20:53:57;7.63;;;3.73;;
4391;SDS011;2210;51.938;8.488;2023-09-12T20:57:58;7.70;;;3.63;;
4391;SDS011;2210;51.938;8.488;2023-09-12T21:01:59;7.30;;;4.20;;
4391;SDS011;2210;51.938;8.488;2023-09-12T21:05:59;7.17;;;3.50;;
4391;SDS011;2210;51.938;8.488;2023-09-12T21:09:59;4.50;;;3.40;;
4391;SDS011;2210;51.938;8.488;2023-09-12T21:14:00;4.77;;;3.40;;
4391;SDS011;2210;51.938;8.488;2023-09-12T21:18:00;4.87;;;3.50;;
4391;SDS011;2210;51.938;8.488;2023-09-12T21:22:00;4.78;;;2.72;;
4391;SDS011;2210;51.938;8.488;2023-09-12T21:26:09;3.90;;;3.50;;
4391;SDS011;2210;51.938;8.488;2023-09-12T21:30:10;3.47;;;2.80;;
4391;SDS011;2210;51.938;8.488;2023-09-12T21:34:11;6.30;;;4.20;;
4391;SDS011;2210;51.938;8.488;2023-09-12T21:38:11;7.80;;;4.57;;
4391;SDS011;2210;51.938;8.488;2023-09-12T21:42:14;8.50;;;4.03;;
4391;SDS011;2210;51.938;8.488;2023-09-12T21:46:21;5.90;;;4.33;;
4391;SDS011;2210;51.938;8.488;2023-09-12T21:50:21;12.10;;;4.70;;
4391;SDS011;2210;51.938;8.488;2023-09-12T21:54:22;6.27;;;5.37;;
4391;SDS011;2210;51.938;8.488;2023-09-12T21:58:23;7.87;;;4.23;;
4391;SDS011;2210;51.938;8.488;2023-09-12T22:02:23;6.23;;;3.80;;
4391;SDS011;2210;51.938;8.488;2023-09-12T22:06:24;10.10;;;3.70;;
4391;SDS011;2210;51.938;8.488;2023-09-12T22:10:26;5.83;;;3.33;;
4391;SDS011;2210;51.938;8.488;2023-09-12T22:14:29;6.27;;;2.80;;
4391;SDS011;2210;51.938;8.488;2023-09-12T22:18:30;3.10;;;1.83;;
4391;SDS011;2210;51.938;8.488;2023-09-12T22:22:33;3.53;;;2.17;;
4391;SDS011;2210;51.938;8.488;2023-09-12T22:26:34;2.80;;;2.00;;
4391;SDS011;2210;51.938;8.488;2023-09-12T22:30:34;2.67;;;1.90;;
4391;SDS011;2210;51.938;8.488;2023-09-12T22:34:34;3.13;;;2.13;;
4391;SDS011;2210;51.938;8.488;2023-09-12T22:38:36;3.87;;;2.50;;
4391;SDS011;2210;51.938;8.488;2023-09-12T22:42:37;3.70;;;2.23;;
4391;SDS011;2210;51.938;8.488;2023-09-12T22:46:41;5.60;;;3.80;;
4391;SDS011;2210;51.938;8.488;2023-09-12T22:50:41;4.53;;;3.20;;
4391;SDS011;2210;51.938;8.488;2023-09-12T22:54:45;3.80;;;2.90;;
4391;SDS011;2210;51.938;8.488;2023-09-12T22:58:48;3.67;;;2.80;;
4391;SDS011;2210;51.938;8.488;2023-09-12T23:02:51;3.57;;;2.50;;
4391;SDS011;2210;51.938;8.488;2023-09-12T23:06:52;3.70;;;2.57;;
4391;SDS011;2210;51.938;8.488;2023-09-12T23:10:52;2.63;;;2.43;;
4391;SDS011;2210;51.938;8.488;2023-09-12T23:14:53;3.00;;;2.47;;
4391;SDS011;2210;51.938;8.488;2023-09-12T23:18:54;3.70;;;2.40;;
4391;SDS011;2210;51.938;8.488;2023-09-12T23:22:57;5.67;;;2.97;;
4391;SDS011;2210;51.938;8.488;2023-09-12T23:26:57;3.20;;;2.80;;
4391;SDS011;2210;51.938;8.488;2023-09-12T23:31:01;3.40;;;2.83;;
4391;SDS011;2210;51.938;8.488;2023-09-12T23:35:02;3.73;;;3.00;;
4391;SDS011;2210;51.938;8.488;2023-09-12T23:39:02;5.13;;;3.20;;
4391;SDS011;2210;51.938;8.488;2023-09-12T23:43:04;10.57;;;3.17;;
4391;SDS011;2210;51.938;8.488;2023-09-12T23:47:07;3.40;;;2.97;;
4391;SDS011;2210;51.938;8.488;2023-09-12T23:51:08;3.90;;;2.87;;
4391;SDS011;2210;51.938;8.488;2023-09-12T23:55:08;3.27;;;2.70;;
4391;SDS011;2210;51.938;8.488;2023-09-12T23:59:09;4.50;;;3.00;;
